DLH7MN EDDM-EDDF
Flight info
| Callsign | DLH7MN |
|---|---|
| Flight time | 0h 35m |
| Altitude | 24000 |
| Route | GIVMI1N GIVMI Y101 ERNAS T161 DEBHI DEBHI1B |
| Aircraft | A319/M-SDE2E3FGIJ1LORWXYZ/HB1 |
Departure
| Time | 2026-05-05 15:24 |
|---|---|
| Airport | Munich Airport (EDDM) |
Arrival
| Time | 2026-05-05 15:59 |
|---|---|
| Airport | Frankfurt Main Airport (EDDF) |
| Time | Latitude | Longitude | Altitude | Speed | Heading |
|---|---|---|---|---|---|
| 2026-05-05 14:54 | 48.35465 | 11.80017 | 1475 ft | 0 kts | 263° |
| 2026-05-05 15:05 | 48.35465 | 11.80018 | 1486 ft | 0 kts | 263° |
| 2026-05-05 15:11 | 48.35467 | 11.80043 | 1485 ft | 4 kts | 263° |
| 2026-05-05 15:12 | 48.35470 | 11.80075 | 1480 ft | 4 kts | 270° |
| 2026-05-05 15:12 | 48.35462 | 11.80100 | 1485 ft | 4 kts | 346° |
| 2026-05-05 15:12 | 48.35439 | 11.80105 | 1482 ft | 2 kts | 353° |
| 2026-05-05 15:12 | 48.35438 | 11.80105 | 1482 ft | 0 kts | 353° |
| 2026-05-05 15:15 | 48.35444 | 11.80104 | 1475 ft | 3 kts | 353° |
| 2026-05-05 15:15 | 48.35482 | 11.80098 | 1475 ft | 7 kts | 353° |
| 2026-05-05 15:16 | 48.35537 | 11.80088 | 1482 ft | 8 kts | 353° |
| 2026-05-05 15:16 | 48.35600 | 11.80077 | 1485 ft | 9 kts | 353° |
| 2026-05-05 15:16 | 48.35668 | 11.80069 | 1485 ft | 10 kts | 5° |
| 2026-05-05 15:16 | 48.35745 | 11.80072 | 1483 ft | 12 kts | 354° |
| 2026-05-05 15:17 | 48.35821 | 11.80019 | 1485 ft | 13 kts | 300° |
| 2026-05-05 15:17 | 48.35821 | 11.79886 | 1485 ft | 13 kts | 263° |
| 2026-05-05 15:17 | 48.35810 | 11.79746 | 1482 ft | 14 kts | 263° |
| 2026-05-05 15:17 | 48.35799 | 11.79599 | 1485 ft | 14 kts | 268° |
| 2026-05-05 15:18 | 48.35869 | 11.79518 | 1482 ft | 14 kts | 353° |
| 2026-05-05 15:18 | 48.35972 | 11.79501 | 1479 ft | 15 kts | 353° |
| 2026-05-05 15:18 | 48.36077 | 11.79483 | 1483 ft | 16 kts | 353° |
| 2026-05-05 15:18 | 48.36188 | 11.79478 | 1485 ft | 16 kts | 21° |
| 2026-05-05 15:19 | 48.36226 | 11.79627 | 1482 ft | 16 kts | 83° |
| 2026-05-05 15:19 | 48.36239 | 11.79799 | 1481 ft | 16 kts | 84° |
| 2026-05-05 15:19 | 48.36252 | 11.79969 | 1477 ft | 16 kts | 83° |
| 2026-05-05 15:19 | 48.36265 | 11.80141 | 1475 ft | 17 kts | 83° |
| 2026-05-05 15:20 | 48.36278 | 11.80310 | 1485 ft | 17 kts | 83° |
| 2026-05-05 15:20 | 48.36291 | 11.80486 | 1485 ft | 17 kts | 83° |
| 2026-05-05 15:20 | 48.36304 | 11.80659 | 1485 ft | 17 kts | 83° |
| 2026-05-05 15:20 | 48.36317 | 11.80831 | 1482 ft | 17 kts | 83° |
| 2026-05-05 15:21 | 48.36332 | 11.81014 | 1485 ft | 18 kts | 83° |
| 2026-05-05 15:21 | 48.36358 | 11.81190 | 1478 ft | 17 kts | 48° |
| 2026-05-05 15:21 | 48.36437 | 11.81120 | 1484 ft | 16 kts | 295° |
| 2026-05-05 15:21 | 48.36480 | 11.80969 | 1484 ft | 14 kts | 293° |
| 2026-05-05 15:22 | 48.36491 | 11.80932 | 1480 ft | 0 kts | 293° |
| 2026-05-05 15:23 | 48.36493 | 11.80924 | 1479 ft | 2 kts | 293° |
| 2026-05-05 15:23 | 48.36506 | 11.80882 | 1482 ft | 12 kts | 294° |
| 2026-05-05 15:23 | 48.36559 | 11.80701 | 1480 ft | 22 kts | 288° |
| 2026-05-05 15:23 | 48.36552 | 11.80312 | 1478 ft | 71 kts | 264° |
| 2026-05-05 15:24 | 48.36468 | 11.79206 | 1500 ft | 136 kts | 265° |
| 2026-05-05 15:24 | 48.36366 | 11.77756 | 2066 ft | 140 kts | 265° |
| 2026-05-05 15:24 | 48.36268 | 11.76290 | 2698 ft | 143 kts | 265° |
| 2026-05-05 15:24 | 48.36155 | 11.74712 | 3181 ft | 162 kts | 265° |
| 2026-05-05 15:25 | 48.36017 | 11.72919 | 3617 ft | 184 kts | 264° |
| 2026-05-05 15:25 | 48.35856 | 11.70872 | 4071 ft | 210 kts | 264° |
| 2026-05-05 15:25 | 48.35763 | 11.68593 | 4830 ft | 225 kts | 277° |
| 2026-05-05 15:25 | 48.36332 | 11.66310 | 5481 ft | 247 kts | 300° |
| 2026-05-05 15:26 | 48.37272 | 11.63997 | 6116 ft | 269 kts | 301° |
| 2026-05-05 15:26 | 48.38280 | 11.61573 | 7013 ft | 277 kts | 301° |
| 2026-05-05 15:26 | 48.39310 | 11.59088 | 8018 ft | 281 kts | 300° |
| 2026-05-05 15:26 | 48.40348 | 11.56565 | 9046 ft | 286 kts | 299° |
| 2026-05-05 15:27 | 48.41385 | 11.53989 | 10078 ft | 289 kts | 299° |
| 2026-05-05 15:27 | 48.42440 | 11.51385 | 11022 ft | 293 kts | 299° |
| 2026-05-05 15:27 | 48.43503 | 11.48785 | 11937 ft | 297 kts | 299° |
| 2026-05-05 15:27 | 48.44686 | 11.46197 | 12859 ft | 304 kts | 308° |
| 2026-05-05 15:28 | 48.46287 | 11.44060 | 13767 ft | 312 kts | 323° |
| 2026-05-05 15:28 | 48.48296 | 11.42548 | 14180 ft | 337 kts | 340° |
| 2026-05-05 15:28 | 48.50654 | 11.41811 | 14662 ft | 353 kts | 348° |
| 2026-05-05 15:28 | 48.53106 | 11.41174 | 15325 ft | 361 kts | 348° |
| 2026-05-05 15:29 | 48.55603 | 11.40505 | 16039 ft | 367 kts | 348° |
| 2026-05-05 15:29 | 48.58134 | 11.39811 | 16792 ft | 371 kts | 348° |
| 2026-05-05 15:29 | 48.60691 | 11.39098 | 17534 ft | 376 kts | 348° |
| 2026-05-05 15:29 | 48.63281 | 11.38371 | 18251 ft | 381 kts | 348° |
| 2026-05-05 15:30 | 48.65908 | 11.37634 | 18881 ft | 386 kts | 348° |
| 2026-05-05 15:30 | 48.68518 | 11.36798 | 19541 ft | 389 kts | 342° |
| 2026-05-05 15:30 | 48.71048 | 11.35321 | 20176 ft | 391 kts | 331° |
| 2026-05-05 15:30 | 48.73379 | 11.33202 | 20819 ft | 393 kts | 323° |
| 2026-05-05 15:31 | 48.75660 | 11.30888 | 21459 ft | 397 kts | 324° |
| 2026-05-05 15:31 | 48.77966 | 11.28544 | 22079 ft | 401 kts | 324° |
| 2026-05-05 15:31 | 48.80297 | 11.26171 | 22627 ft | 406 kts | 324° |
| 2026-05-05 15:31 | 48.82649 | 11.23782 | 22873 ft | 407 kts | 324° |
| 2026-05-05 15:32 | 48.84942 | 11.21264 | 23146 ft | 406 kts | 317° |
| 2026-05-05 15:32 | 48.87043 | 11.18377 | 23413 ft | 407 kts | 315° |
| 2026-05-05 15:32 | 48.89138 | 11.15465 | 23640 ft | 409 kts | 315° |
| 2026-05-05 15:32 | 48.91240 | 11.12538 | 23769 ft | 410 kts | 315° |
| 2026-05-05 15:33 | 48.93313 | 11.09648 | 23815 ft | 396 kts | 315° |
| 2026-05-05 15:33 | 48.95302 | 11.06879 | 23821 ft | 379 kts | 315° |
| 2026-05-05 15:33 | 48.97228 | 11.04193 | 23840 ft | 373 kts | 314° |
| 2026-05-05 15:33 | 48.99129 | 11.01522 | 23824 ft | 371 kts | 314° |
| 2026-05-05 15:34 | 49.01026 | 10.98850 | 23821 ft | 372 kts | 314° |
| 2026-05-05 15:34 | 49.02926 | 10.96174 | 23848 ft | 372 kts | 314° |
| 2026-05-05 15:34 | 49.04826 | 10.93499 | 23840 ft | 372 kts | 314° |
| 2026-05-05 15:34 | 49.06727 | 10.90820 | 23840 ft | 372 kts | 314° |
| 2026-05-05 15:35 | 49.08625 | 10.88144 | 23847 ft | 372 kts | 314° |
| 2026-05-05 15:35 | 49.10525 | 10.85465 | 23839 ft | 372 kts | 314° |
| 2026-05-05 15:35 | 49.12423 | 10.82784 | 23859 ft | 372 kts | 314° |
| 2026-05-05 15:35 | 49.14324 | 10.80100 | 23864 ft | 372 kts | 314° |
| 2026-05-05 15:36 | 49.16220 | 10.77418 | 23861 ft | 372 kts | 314° |
| 2026-05-05 15:36 | 49.18090 | 10.74770 | 23866 ft | 371 kts | 314° |
| 2026-05-05 15:36 | 49.19980 | 10.72079 | 23863 ft | 371 kts | 313° |
| 2026-05-05 15:36 | 49.21821 | 10.69318 | 23848 ft | 370 kts | 311° |
| 2026-05-05 15:37 | 49.23620 | 10.66493 | 23867 ft | 370 kts | 311° |
| 2026-05-05 15:37 | 49.25398 | 10.63640 | 23870 ft | 370 kts | 310° |
| 2026-05-05 15:37 | 49.27168 | 10.60784 | 23862 ft | 370 kts | 310° |
| 2026-05-05 15:37 | 49.28942 | 10.57932 | 23864 ft | 370 kts | 311° |
| 2026-05-05 15:38 | 49.30720 | 10.55096 | 23865 ft | 369 kts | 311° |
| 2026-05-05 15:38 | 49.32508 | 10.52262 | 23866 ft | 369 kts | 311° |
| 2026-05-05 15:38 | 49.34301 | 10.49431 | 23866 ft | 369 kts | 311° |
| 2026-05-05 15:38 | 49.36071 | 10.46546 | 23839 ft | 371 kts | 306° |
| 2026-05-05 15:39 | 49.37611 | 10.43355 | 23488 ft | 373 kts | 302° |
| 2026-05-05 15:39 | 49.39103 | 10.40113 | 23034 ft | 370 kts | 302° |
| 2026-05-05 15:39 | 49.40568 | 10.36894 | 22668 ft | 366 kts | 302° |
| 2026-05-05 15:39 | 49.42016 | 10.33697 | 22288 ft | 363 kts | 302° |
| 2026-05-05 15:40 | 49.43453 | 10.30518 | 21943 ft | 361 kts | 302° |
| 2026-05-05 15:40 | 49.44885 | 10.27357 | 21568 ft | 358 kts | 302° |
| 2026-05-05 15:40 | 49.46306 | 10.24222 | 21207 ft | 356 kts | 302° |
| 2026-05-05 15:40 | 49.47702 | 10.21144 | 20856 ft | 354 kts | 302° |
| 2026-05-05 15:41 | 49.49108 | 10.18039 | 20495 ft | 352 kts | 302° |
| 2026-05-05 15:41 | 49.50509 | 10.14942 | 20140 ft | 351 kts | 302° |
| 2026-05-05 15:41 | 49.51896 | 10.11875 | 19786 ft | 349 kts | 302° |
| 2026-05-05 15:41 | 49.53280 | 10.08818 | 19427 ft | 347 kts | 302° |
| 2026-05-05 15:42 | 49.54654 | 10.05782 | 19081 ft | 345 kts | 302° |
| 2026-05-05 15:42 | 49.56019 | 10.02758 | 18728 ft | 343 kts | 302° |
| 2026-05-05 15:42 | 49.57377 | 9.99745 | 18379 ft | 341 kts | 302° |
| 2026-05-05 15:42 | 49.58726 | 9.96747 | 18014 ft | 339 kts | 302° |
| 2026-05-05 15:43 | 49.60063 | 9.93770 | 17651 ft | 337 kts | 302° |
| 2026-05-05 15:43 | 49.61395 | 9.90801 | 17316 ft | 335 kts | 302° |
| 2026-05-05 15:43 | 49.62699 | 9.87891 | 16971 ft | 334 kts | 302° |
| 2026-05-05 15:43 | 49.64014 | 9.84951 | 16633 ft | 332 kts | 302° |
| 2026-05-05 15:44 | 49.65324 | 9.82020 | 16288 ft | 330 kts | 302° |
| 2026-05-05 15:44 | 49.66626 | 9.79101 | 15947 ft | 329 kts | 302° |
| 2026-05-05 15:44 | 49.67919 | 9.76202 | 15616 ft | 327 kts | 302° |
| 2026-05-05 15:44 | 49.69212 | 9.73301 | 15280 ft | 325 kts | 302° |
| 2026-05-05 15:45 | 49.70495 | 9.70419 | 14939 ft | 324 kts | 302° |
| 2026-05-05 15:45 | 49.71775 | 9.67567 | 14617 ft | 323 kts | 305° |
| 2026-05-05 15:45 | 49.73300 | 9.65011 | 14281 ft | 323 kts | 314° |
| 2026-05-05 15:45 | 49.74902 | 9.62580 | 13937 ft | 322 kts | 314° |
| 2026-05-05 15:46 | 49.76502 | 9.60163 | 13615 ft | 321 kts | 314° |
| 2026-05-05 15:46 | 49.78092 | 9.57758 | 13250 ft | 319 kts | 314° |
| 2026-05-05 15:46 | 49.79658 | 9.55392 | 12860 ft | 318 kts | 314° |
| 2026-05-05 15:46 | 49.81235 | 9.53008 | 12479 ft | 317 kts | 314° |
| 2026-05-05 15:47 | 49.82807 | 9.50614 | 12093 ft | 316 kts | 314° |
| 2026-05-05 15:47 | 49.83867 | 9.49001 | 11833 ft | 315 kts | 314° |
| 2026-05-05 15:47 | 49.85936 | 9.45856 | 11332 ft | 313 kts | 314° |
| 2026-05-05 15:47 | 49.87489 | 9.43498 | 10960 ft | 312 kts | 314° |
| 2026-05-05 15:48 | 49.89032 | 9.41157 | 10591 ft | 307 kts | 314° |
| 2026-05-05 15:48 | 49.90546 | 9.38861 | 10253 ft | 302 kts | 314° |
| 2026-05-05 15:48 | 49.92046 | 9.36591 | 9915 ft | 300 kts | 314° |
| 2026-05-05 15:48 | 49.93535 | 9.34336 | 9565 ft | 298 kts | 314° |
| 2026-05-05 15:49 | 49.95014 | 9.32093 | 9187 ft | 297 kts | 314° |
| 2026-05-05 15:49 | 49.96488 | 9.29863 | 8825 ft | 294 kts | 314° |
| 2026-05-05 15:49 | 49.97959 | 9.27662 | 8458 ft | 292 kts | 314° |
| 2026-05-05 15:49 | 49.99419 | 9.25476 | 8060 ft | 289 kts | 314° |
| 2026-05-05 15:50 | 50.00861 | 9.23311 | 7658 ft | 287 kts | 314° |
| 2026-05-05 15:50 | 50.02284 | 9.21179 | 7252 ft | 279 kts | 314° |
| 2026-05-05 15:50 | 50.03645 | 9.19154 | 6865 ft | 269 kts | 314° |
| 2026-05-05 15:50 | 50.04977 | 9.17182 | 6476 ft | 260 kts | 314° |
| 2026-05-05 15:51 | 50.06269 | 9.15280 | 6107 ft | 251 kts | 314° |
| 2026-05-05 15:51 | 50.07538 | 9.13417 | 5743 ft | 245 kts | 314° |
| 2026-05-05 15:51 | 50.08773 | 9.11611 | 5388 ft | 243 kts | 314° |
| 2026-05-05 15:51 | 50.09979 | 9.09831 | 5051 ft | 242 kts | 314° |
| 2026-05-05 15:52 | 50.11198 | 9.08026 | 4703 ft | 241 kts | 314° |
| 2026-05-05 15:52 | 50.12226 | 9.06013 | 4342 ft | 236 kts | 291° |
| 2026-05-05 15:52 | 50.12598 | 9.03559 | 4033 ft | 231 kts | 276° |
| 2026-05-05 15:52 | 50.12791 | 9.01083 | 3990 ft | 230 kts | 274° |
| 2026-05-05 15:53 | 50.12970 | 8.98601 | 3996 ft | 230 kts | 274° |
| 2026-05-05 15:53 | 50.12863 | 8.96150 | 3996 ft | 226 kts | 250° |
| 2026-05-05 15:53 | 50.12324 | 8.93853 | 3995 ft | 226 kts | 248° |
| 2026-05-05 15:53 | 50.11777 | 8.91546 | 3995 ft | 226 kts | 248° |
| 2026-05-05 15:54 | 50.11238 | 8.89249 | 3998 ft | 225 kts | 248° |
| 2026-05-05 15:54 | 50.10699 | 8.86958 | 3995 ft | 225 kts | 248° |
| 2026-05-05 15:54 | 50.10161 | 8.84667 | 3833 ft | 225 kts | 248° |
| 2026-05-05 15:54 | 50.09632 | 8.82419 | 3564 ft | 217 kts | 248° |
| 2026-05-05 15:55 | 50.09120 | 8.80245 | 3282 ft | 209 kts | 248° |
| 2026-05-05 15:55 | 50.08633 | 8.78182 | 3018 ft | 195 kts | 249° |
| 2026-05-05 15:55 | 50.08181 | 8.76269 | 2795 ft | 184 kts | 248° |
| 2026-05-05 15:55 | 50.07746 | 8.74429 | 2530 ft | 179 kts | 249° |
| 2026-05-05 15:56 | 50.07353 | 8.72674 | 2285 ft | 163 kts | 254° |
| 2026-05-05 15:56 | 50.07085 | 8.71026 | 1933 ft | 148 kts | 255° |
| 2026-05-05 15:56 | 50.06913 | 8.70054 | 1784 ft | 134 kts | 254° |
| 2026-05-05 15:56 | 50.06646 | 8.68269 | 1491 ft | 124 kts | 258° |
| 2026-05-05 15:57 | 50.06530 | 8.67391 | 1310 ft | 121 kts | 254° |
| 2026-05-05 15:57 | 50.06162 | 8.65777 | 1195 ft | 119 kts | 250° |
| 2026-05-05 15:57 | 50.05889 | 8.64551 | 1123 ft | 120 kts | 250° |
| 2026-05-05 15:57 | 50.05698 | 8.63725 | 1060 ft | 120 kts | 249° |
| 2026-05-05 15:58 | 50.05416 | 8.62522 | 899 ft | 120 kts | 251° |
| 2026-05-05 15:58 | 50.05131 | 8.61307 | 754 ft | 118 kts | 249° |
| 2026-05-05 15:58 | 50.04849 | 8.60098 | 607 ft | 119 kts | 247° |
| 2026-05-05 15:58 | 50.04561 | 8.58899 | 437 ft | 118 kts | 248° |
| 2026-05-05 15:59 | 50.04286 | 8.57754 | 362 ft | 100 kts | 250° |
| 2026-05-05 15:59 | 50.04108 | 8.56995 | 368 ft | 50 kts | 250° |
| 2026-05-05 15:59 | 50.04090 | 8.56724 | 361 ft | 17 kts | 348° |
| 2026-05-05 15:59 | 50.04168 | 8.56769 | 359 ft | 9 kts | 22° |
| 2026-05-05 16:00 | 50.04175 | 8.56772 | 358 ft | 0 kts | 15° |
| 2026-05-05 16:02 | 50.04188 | 8.56777 | 363 ft | 4 kts | 12° |
| 2026-05-05 16:02 | 50.04226 | 8.56791 | 364 ft | 7 kts | 19° |
| 2026-05-05 16:02 | 50.04267 | 8.56862 | 360 ft | 11 kts | 69° |
| 2026-05-05 16:02 | 50.04296 | 8.56981 | 360 ft | 13 kts | 70° |
| 2026-05-05 16:03 | 50.04326 | 8.57108 | 361 ft | 12 kts | 70° |
| 2026-05-05 16:03 | 50.04352 | 8.57220 | 361 ft | 10 kts | 70° |
| 2026-05-05 16:03 | 50.04376 | 8.57324 | 363 ft | 11 kts | 69° |
| 2026-05-05 16:03 | 50.04403 | 8.57437 | 364 ft | 11 kts | 70° |
| 2026-05-05 16:04 | 50.04428 | 8.57545 | 366 ft | 10 kts | 70° |
| 2026-05-05 16:04 | 50.04449 | 8.57629 | 366 ft | 10 kts | 69° |
| 2026-05-05 16:04 | 50.04481 | 8.57759 | 366 ft | 15 kts | 69° |
| 2026-05-05 16:04 | 50.04515 | 8.57904 | 367 ft | 15 kts | 70° |
| 2026-05-05 16:05 | 50.04552 | 8.58059 | 365 ft | 16 kts | 69° |
| 2026-05-05 16:05 | 50.04590 | 8.58216 | 368 ft | 15 kts | 69° |
| 2026-05-05 16:05 | 50.04623 | 8.58356 | 370 ft | 14 kts | 70° |
| 2026-05-05 16:05 | 50.04660 | 8.58510 | 372 ft | 16 kts | 69° |
| 2026-05-05 16:06 | 50.04701 | 8.58679 | 369 ft | 17 kts | 67° |
| 2026-05-05 16:06 | 50.04745 | 8.58845 | 369 ft | 16 kts | 69° |
| 2026-05-05 16:06 | 50.04796 | 8.58934 | 367 ft | 11 kts | 343° |
| 2026-05-05 16:06 | 50.04851 | 8.58901 | 367 ft | 2 kts | 340° |
| 2026-05-05 16:07 | 50.04853 | 8.58900 | 366 ft | 0 kts | 340° |